Time;durP1;ratioP1;P1;durP2;ratioP2;P2;SDS_P1;SDS_P2;PMS_P1;PMS_P2;Temp;Humidity;BMP_temperature;BMP_pressure;BME280_temperature;BME280_humidity;BME280_pressure;Samples;Min_cycle;Max_cycle;Signal;HPM_P1;HPM_P2
2021/03/21 00:01:43;;;;;;;48.13;25.55;;;;;;;0.71;61.50;100915.31;6129396;23;20433;-64
2021/03/21 00:04:11;;;;;;;48.92;26.55;;;;;;;0.64;61.67;100914.16;6130119;23;20002;-64
2021/03/21 00:06:36;;;;;;;49.15;27.52;;;;;;;0.60;62.09;100908.47;6129360;23;20073;-66
2021/03/21 00:09:03;;;;;;;44.08;23.90;;;;;;;0.55;61.90;100912.19;6129775;23;20029;-66
2021/03/21 00:11:28;;;;;;;44.15;24.92;;;;;;;0.52;62.31;100903.72;6129444;23;20089;-65
2021/03/21 00:13:53;;;;;;;44.90;24.50;;;;;;;0.49;61.65;100907.94;6129540;23;20002;-63
2021/03/21 00:16:19;;;;;;;46.40;25.02;;;;;;;0.46;61.93;100916.06;6129699;23;20010;-63
2021/03/21 00:18:44;;;;;;;47.10;25.45;;;;;;;0.42;62.10;100913.13;6129761;23;20006;-62
2021/03/21 00:21:12;;;;;;;45.85;23.80;;;;;;;0.40;61.92;100909.06;6104018;23;20101;-60
2021/03/21 00:23:38;;;;;;;48.78;26.45;;;;;;;0.37;62.34;100913.28;6129413;23;20002;-63
2021/03/21 00:26:05;;;;;;;51.72;25.38;;;;;;;0.36;62.54;100903.38;6129608;23;20033;-64
2021/03/21 00:28:33;;;;;;;43.85;25.60;;;;;;;0.36;62.36;100910.84;6129562;23;20009;-63
2021/03/21 00:30:59;;;;;;;48.55;25.48;;;;;;;0.34;62.44;100904.81;6129215;23;20002;-64
2021/03/21 00:33:28;;;;;;;49.53;25.42;;;;;;;0.30;62.62;100894.41;6129850;23;20080;-64
2021/03/21 00:35:54;;;;;;;44.80;25.05;;;;;;;0.28;62.45;100896.69;6129614;23;20006;-64
2021/03/21 00:38:27;;;;;;;45.50;26.48;;;;;;;0.25;62.63;100896.50;6129503;23;20076;-64
2021/03/21 00:40:52;;;;;;;48.30;26.05;;;;;;;0.21;62.25;100890.78;6131223;23;20028;-65
2021/03/21 00:43:18;;;;;;;43.55;24.77;;;;;;;0.15;62.77;100885.75;6131340;23;20076;-60
2021/03/21 00:45:43;;;;;;;47.60;26.00;;;;;;;0.10;62.89;100889.47;6131329;23;20009;-63
2021/03/21 00:48:15;;;;;;;45.85;27.02;;;;;;;0.07;62.92;100881.81;6131430;23;20092;-64
2021/03/21 00:50:40;;;;;;;;;;;;;;;0.01;62.84;100891.41;6106253;23;20363;-60
2021/03/21 00:53:06;;;;;;;46.42;25.73;;;;;;;-0.02;63.22;100886.47;6131378;23;19908;-61
2021/03/21 00:55:31;;;;;;;45.45;25.58;;;;;;;-0.03;62.53;100879.31;6131279;23;20006;-61
2021/03/21 00:57:56;;;;;;;45.00;25.08;;;;;;;-0.03;62.66;100877.38;6131711;23;20010;-65
2021/03/21 01:00:23;;;;;;;48.05;26.17;;;;;;;0.00;61.98;100875.94;6131366;23;20002;-63
2021/03/21 01:02:49;;;;;;;48.20;26.40;;;;;;;-0.03;62.11;100873.81;6131457;23;20088;-62
2021/03/21 01:05:19;;;;;;;40.67;23.85;;;;;;;-0.08;62.54;100871.19;6131485;23;20033;-66
2021/03/21 01:07:45;;;;;;;47.28;26.00;;;;;;;-0.12;61.91;100864.69;6131257;23;20001;-66
2021/03/21 01:10:11;;;;;;;44.97;25.33;;;;;;;-0.13;62.78;100860.28;6130740;23;20013;-66
2021/03/21 01:12:37;;;;;;;43.70;25.13;;;;;;;-0.14;62.47;100866.94;6131477;23;20396;-65
2021/03/21 01:15:03;;;;;;;43.95;25.52;;;;;;;-0.12;62.34;100859.16;6131593;23;20002;-66
2021/03/21 01:17:29;;;;;;;47.10;25.25;;;;;;;-0.14;61.97;100859.47;6131342;23;20082;-65
2021/03/21 01:19:54;;;;;;;44.70;25.55;;;;;;;-0.17;63.00;100851.81;6131171;23;20026;-66
2021/03/21 01:22:19;;;;;;;40.17;24.30;;;;;;;-0.20;62.23;100863.50;6131066;23;20339;-66
2021/03/21 01:24:45;;;;;;;47.88;26.50;;;;;;;-0.19;62.43;100853.28;6131118;23;20002;-66
2021/03/21 01:27:10;;;;;;;46.35;25.00;;;;;;;-0.18;62.73;100855.72;6131192;23;20029;-66
2021/03/21 01:29:36;;;;;;;46.08;26.25;;;;;;;-0.17;62.38;100857.34;6105581;23;20029;-65
2021/03/21 01:32:01;;;;;;;50.05;26.15;;;;;;;-0.14;62.54;100859.47;6131005;23;20006;-66
2021/03/21 01:34:27;;;;;;;44.17;24.63;;;;;;;-0.13;62.07;100855.56;6131187;23;20010;-60
2021/03/21 01:36:52;;;;;;;51.00;27.05;;;;;;;-0.16;62.71;100847.94;6131471;23;20009;-61
2021/03/21 01:39:24;;;;;;;48.00;25.80;;;;;;;-0.22;62.63;100842.88;6130603;23;20008;-62
2021/03/21 01:41:56;;;;;;;45.92;25.65;;;;;;;-0.31;63.42;100843.63;6130990;23;20379;-64
2021/03/21 01:44:22;;;;;;;47.83;25.50;;;;;;;-0.36;62.20;100838.25;6131022;23;20002;-57
2021/03/21 01:46:53;;;;;;;47.20;26.15;;;;;;;-0.37;62.73;100828.34;6131008;23;20016;-59
2021/03/21 01:49:42;;;;;;;33.28;18.42;;;;;;;-0.39;62.95;100836.13;6130944;23;20240;-60
2021/03/21 01:52:11;;;;;;;43.83;24.38;;;;;;;-0.41;62.62;100835.63;6130584;23;20014;-62
2021/03/21 01:54:36;;;;;;;46.78;27.35;;;;;;;-0.43;62.36;100840.66;6130788;23;20005;-65
2021/03/21 01:57:02;;;;;;;47.10;24.95;;;;;;;-0.42;63.22;100841.47;6130834;23;20266;-65
2021/03/21 01:59:31;;;;;;;51.88;27.27;;;;;;;-0.40;62.62;100847.50;6130729;23;20017;-65
2021/03/21 02:01:59;;;;;;;44.60;25.35;;;;;;;-0.42;62.61;100839.53;6130796;23;20001;-65
2021/03/21 02:04:25;;;;;;;49.20;26.98;;;;;;;-0.43;62.54;100837.91;6130939;23;20002;-65
2021/03/21 02:07:13;;;;;;;51.15;28.42;;;;;;;-0.45;62.92;100840.16;6130476;23;20013;-64
2021/03/21 02:10:05;;;;;;;51.40;26.42;;;;;;;-0.50;63.16;100837.56;6130593;23;20085;-64
2021/03/21 02:13:07;;;;;;;49.17;26.45;;;;;;;-0.50;63.37;100834.78;6130831;23;20240;-65
2021/03/21 02:15:48;;;;;;;48.10;24.38;;;;;;;-0.45;62.44;100829.13;6130930;23;20002;-65
2021/03/21 02:18:22;;;;;;;46.70;25.27;;;;;;;-0.45;62.64;100834.66;6130710;23;20034;-65
2021/03/21 02:20:47;;;;;;;47.13;23.80;;;;;;;-0.45;62.03;100822.78;6130355;23;20393;-66
2021/03/21 02:23:18;;;;;;;43.85;24.60;;;;;;;-0.47;61.87;100825.88;6130790;23;20002;-65
2021/03/21 02:26:10;;;;;;;43.40;22.80;;;;;;;-0.51;61.90;100818.53;6130963;23;20338;-64
2021/03/21 02:29:12;;;;;;;40.65;23.52;;;;;;;-0.58;61.39;100818.97;6130425;23;20224;-65
2021/03/21 02:31:53;;;;;;;39.10;21.58;;;;;;;-0.69;62.29;100820.38;6130613;23;20434;-64
2021/03/21 02:34:22;;;;;;;41.60;22.45;;;;;;;-0.82;62.28;100813.84;6130183;23;20028;-64
2021/03/21 02:37:04;;;;;;;43.33;22.73;;;;;;;-0.88;62.98;100809.56;6130731;23;20266;-66
2021/03/21 02:39:52;;;;;;;47.65;22.83;;;;;;;-0.89;63.10;100812.63;6130587;23;20359;-64
2021/03/21 02:42:23;;;;;;;41.15;22.38;;;;;;;-0.88;63.35;100815.09;6130170;23;20029;-63
2021/03/21 02:45:01;;;;;;;46.25;23.52;;;;;;;-0.82;62.60;100805.56;6129275;23;20208;-64
2021/03/21 02:47:29;;;;;;;38.95;21.83;;;;;;;-0.79;62.16;100806.88;6130312;23;20199;-63
2021/03/21 02:49:58;;;;;;;40.95;23.83;;;;;;;-0.86;62.18;100804.53;6129943;23;20023;-65
2021/03/21 02:52:30;;;;;;;42.97;21.90;;;;;;;-0.90;62.18;100806.31;6130351;23;20013;-65
2021/03/21 02:55:03;;;;;;;46.10;22.55;;;;;;;-0.95;62.39;100798.16;6104427;23;20091;-64
2021/03/21 02:57:34;;;;;;;41.00;21.45;;;;;;;-0.97;62.41;100792.97;6130346;23;20005;-64
2021/03/21 03:00:01;;;;;;;38.83;22.23;;;;;;;-0.96;62.25;100785.50;6130349;23;20243;-64
2021/03/21 03:02:38;;;;;;;40.78;22.63;;;;;;;-1.00;62.55;100784.50;6129679;23;20220;-64
2021/03/21 03:05:20;;;;;;;43.13;22.05;;;;;;;-1.04;62.42;100787.09;6130371;23;20041;-64
2021/03/21 03:07:47;;;;;;;36.03;22.10;;;;;;;-1.03;62.51;100777.69;6129872;23;20006;-64
2021/03/21 03:10:34;;;;;;;37.13;20.73;;;;;;;-1.02;61.83;100778.50;6130194;23;20005;-65
2021/03/21 03:13:22;;;;;;;37.35;20.55;;;;;;;-1.03;62.20;100780.44;6130126;23;20072;-55
2021/03/21 03:15:54;;;;;;;38.40;20.90;;;;;;;-1.07;61.43;100784.97;6130107;23;20037;-54
2021/03/21 03:18:40;;;;;;;38.08;20.15;;;;;;;-1.06;62.08;100783.00;6129971;23;20010;-62
2021/03/21 03:21:44;;;;;;;40.63;20.42;;;;;;;-1.05;61.92;100782.69;6130223;23;20008;-65
2021/03/21 03:24:28;;;;;;;39.08;20.90;;;;;;;-1.10;61.21;100777.28;6118281;23;20080;-64
2021/03/21 03:27:01;;;;;;;39.40;21.33;;;;;;;-1.15;61.38;100782.13;6130500;23;20002;-65
2021/03/21 03:29:49;;;;;;;39.50;21.02;;;;;;;-1.22;61.70;100777.06;6130107;23;20291;-64
2021/03/21 03:32:15;;;;;;;38.80;21.75;;;;;;;-1.26;62.27;100778.81;6130161;23;20060;-64
2021/03/21 03:34:46;;;;;;;43.03;21.00;;;;;;;-1.34;62.52;100776.81;6129847;23;20266;-64
2021/03/21 03:37:12;;;;;;;;;;;;;;;-1.40;62.46;100776.09;6130308;23;20063;-64
2021/03/21 03:39:39;;;;;;;42.58;22.33;;;;;;;-1.46;62.43;100771.84;6129621;23;19979;-66
2021/03/21 03:42:11;;;;;;;46.75;22.00;;;;;;;-1.54;62.56;100774.56;6129882;23;20300;-66
2021/03/21 03:44:40;;;;;;;42.92;21.83;;;;;;;-1.62;63.41;100765.91;6129649;23;20006;-65
2021/03/21 03:47:13;;;;;;;42.05;22.13;;;;;;;-1.70;63.52;100766.63;6130057;23;20006;-66
2021/03/21 03:50:00;;;;;;;37.90;21.27;;;;;;;-1.75;63.85;100769.50;6129444;23;20056;-65
2021/03/21 03:52:40;;;;;;;40.33;21.02;;;;;;;-1.78;63.67;100764.63;6129818;23;20270;-64
2021/03/21 03:55:37;;;;;;;38.40;21.98;;;;;;;-1.83;63.91;100755.66;6129452;23;20037;-65
2021/03/21 03:58:19;;;;;;;39.53;21.77;;;;;;;-1.84;63.54;100754.84;6123340;23;20053;-63
2021/03/21 04:00:53;;;;;;;43.22;22.67;;;;;;;-1.86;63.71;100757.09;6129831;23;20002;-65
2021/03/21 04:03:26;;;;;;;49.45;24.80;;;;;;;-1.85;63.82;100755.97;6129542;23;20009;-65
2021/03/21 04:06:01;;;;;;;41.15;22.25;;;;;;;-1.77;63.78;100744.22;6129856;23;20009;-54
2021/03/21 04:08:35;;;;;;;46.85;23.70;;;;;;;-1.70;63.51;100755.59;6129936;23;20010;-54
2021/03/21 04:11:13;;;;;;;45.25;22.35;;;;;;;-1.67;63.21;100754.16;6129686;23;20437;-56
2021/03/21 04:13:44;;;;;;;40.03;21.50;;;;;;;-1.67;63.39;100754.97;6129636;23;20127;-58
2021/03/21 04:16:14;;;;;;;42.80;21.40;;;;;;;-1.64;63.19;100754.38;6129627;23;20002;-56
2021/03/21 04:18:56;;;;;;;45.25;21.75;;;;;;;-1.63;62.32;100757.97;6129462;23;20009;-56
2021/03/21 04:21:37;;;;;;;41.13;20.98;;;;;;;-1.62;62.37;100763.16;6129580;23;19998;-63
2021/03/21 04:24:14;;;;;;;48.55;22.23;;;;;;;-1.61;62.16;100752.94;6101628;23;20085;-64
2021/03/21 04:26:54;;;;;;;49.60;24.02;;;;;;;-1.61;62.24;100753.75;6128545;23;20012;-63
2021/03/21 04:29:26;;;;;;;41.47;21.48;;;;;;;-1.65;62.50;100757.44;6129510;23;20005;-63
2021/03/21 04:31:53;;;;;;;;;;;;;;;-1.73;62.47;100764.50;6130009;23;20009;-64
2021/03/21 04:34:20;;;;;;;42.10;21.10;;;;;;;-1.73;62.23;100760.94;6128999;23;19983;-64
2021/03/21 04:36:47;;;;;;;36.10;20.08;;;;;;;-1.73;62.40;100763.69;6129635;23;20013;-63
2021/03/21 04:39:20;;;;;;;40.03;20.30;;;;;;;-1.73;62.40;100761.75;6129597;23;20052;-64
2021/03/21 04:41:49;;;;;;;36.85;19.77;;;;;;;-1.70;62.21;100760.31;6129565;23;20375;-61
2021/03/21 04:44:30;;;;;;;36.47;19.90;;;;;;;-1.68;61.55;100761.63;6129981;23;20009;-54
2021/03/21 04:47:10;;;;;;;28.05;15.95;;;;;;;-1.68;61.24;100763.56;6129011;23;20287;-64
2021/03/21 04:49:36;;;;;;;38.83;19.95;;;;;;;-1.72;61.48;100752.34;6129491;23;20018;-63
2021/03/21 04:52:39;;;;;;;36.75;18.98;;;;;;;-1.79;62.59;100757.50;6129078;23;20061;-59
2021/03/21 04:55:09;;;;;;;39.00;19.73;;;;;;;-1.79;62.23;100751.97;6128157;23;20009;-56
2021/03/21 04:57:35;;;;;;;36.65;19.60;;;;;;;-1.77;62.36;100746.97;6129347;23;20374;-60
2021/03/21 05:00:01;;;;;;;36.65;20.20;;;;;;;-1.75;61.61;100744.72;6129123;23;20002;-59
2021/03/21 05:02:31;;;;;;;35.78;19.23;;;;;;;-1.78;62.05;100745.34;6129336;23;20014;-59
2021/03/21 05:05:01;;;;;;;33.72;19.05;;;;;;;-1.82;62.19;100749.84;6129710;23;20061;-60
2021/03/21 05:07:47;;;;;;;39.60;21.83;;;;;;;-1.85;61.86;100753.22;6129513;23;20038;-60
2021/03/21 05:10:25;;;;;;;42.72;20.55;;;;;;;-1.84;61.94;100754.03;6129268;23;20270;-56
2021/03/21 05:13:28;;;;;;;36.47;19.40;;;;;;;-1.83;62.44;100742.72;6103057;23;20068;-53
2021/03/21 05:15:59;;;;;;;35.15;20.80;;;;;;;-1.83;62.18;100741.88;6129162;23;20058;-57
2021/03/21 05:18:46;;;;;;;39.35;19.33;;;;;;;-1.83;61.94;100750.97;6129434;23;20002;-56
2021/03/21 05:21:18;;;;;;;35.83;20.17;;;;;;;-1.83;62.05;100750.97;6129339;23;20048;-65
2021/03/21 05:23:53;;;;;;;36.00;18.67;;;;;;;-1.81;62.38;100736.88;6128458;23;20013;-65
2021/03/21 05:26:27;;;;;;;39.10;20.42;;;;;;;-1.78;62.46;100742.59;6129708;23;20239;-65
2021/03/21 05:29:17;;;;;;;33.65;19.13;;;;;;;-1.73;61.81;100741.63;6131080;23;20363;-65
2021/03/21 05:31:43;;;;;;;36.75;19.92;;;;;;;-1.71;62.36;100742.97;6130903;23;20002;-66
2021/03/21 05:34:09;;;;;;;38.25;19.23;;;;;;;-1.66;62.13;100745.59;6130992;23;20018;-65
2021/03/21 05:37:13;;;;;;;39.67;19.95;;;;;;;-1.61;61.54;100737.22;6131083;23;20041;-52
2021/03/21 05:39:47;;;;;;;38.80;20.33;;;;;;;-1.57;61.65;100743.72;6130709;23;20002;-54
2021/03/21 05:43:09;;;;;;;37.78;18.65;;;;;;;-1.47;61.13;100741.84;6104933;23;20052;-54
2021/03/21 05:46:08;;;;;;;36.53;19.05;;;;;;;-1.35;60.71;100742.09;6129644;23;20246;-56
2021/03/21 05:48:52;;;;;;;44.28;20.40;;;;;;;-1.26;60.31;100737.44;6130581;23;20006;-57
2021/03/21 05:51:52;;;;;;;81.22;34.00;;;;;;;-1.15;60.96;100741.56;6104753;23;20068;-55
2021/03/21 05:54:51;;;;;;;67.30;32.65;;;;;;;-1.03;60.54;100735.47;6130868;23;20350;-56
2021/03/21 05:57:38;;;;;;;39.33;19.45;;;;;;;-0.90;60.59;100750.28;6130970;23;20359;-64
2021/03/21 06:00:25;;;;;;;38.65;18.83;;;;;;;-0.78;59.32;100745.81;6130542;23;20041;-65
2021/03/21 06:03:47;;;;;;;31.88;18.50;;;;;;;-0.70;59.96;100747.81;6130954;23;20060;-62
2021/03/21 06:06:24;;;;;;;;;;;;;;;-0.59;60.07;100748.31;6071273;23;20006;-66
2021/03/21 06:09:21;;;;;;;27.95;15.50;;;;;;;-0.43;59.95;100740.44;6070080;23;19909;-65
2021/03/21 06:11:59;;;;;;;29.40;16.13;;;;;;;-0.29;59.69;100745.81;6123259;23;20381;-62
2021/03/21 06:14:51;;;;;;;27.77;14.85;;;;;;;-0.14;59.14;100742.59;6131012;23;20002;-55
2021/03/21 06:17:38;;;;;;;26.42;15.98;;;;;;;0.02;58.96;100749.31;6130690;23;20020;-60
2021/03/21 06:20:13;;;;;;;28.27;15.75;;;;;;;0.16;58.52;100738.91;6131113;23;20263;-57
2021/03/21 06:23:04;;;;;;;27.67;14.50;;;;;;;0.29;57.48;100734.38;6130681;23;20381;-54
2021/03/21 06:25:53;;;;;;;24.75;14.63;;;;;;;0.47;56.63;100729.63;6130440;23;20006;-65
2021/03/21 06:28:31;;;;;;;24.83;14.68;;;;;;;0.60;56.46;100728.66;6130792;23;20029;-66
2021/03/21 06:31:23;;;;;;;26.60;13.23;;;;;;;0.76;55.34;100720.63;6104618;23;20065;-66
2021/03/21 06:33:58;;;;;;;28.08;15.60;;;;;;;0.89;55.69;100727.94;6130459;23;20132;-63
2021/03/21 06:36:36;;;;;;;30.02;16.52;;;;;;;1.04;55.26;100726.56;6104919;23;20088;-64
2021/03/21 06:39:20;;;;;;;28.85;15.30;;;;;;;1.24;54.71;100734.16;6130562;23;20010;-66
2021/03/21 06:42:03;;;;;;;27.52;13.60;;;;;;;1.48;54.26;100731.63;6130259;23;20092;-66
2021/03/21 06:44:47;;;;;;;27.20;15.10;;;;;;;1.62;52.92;100738.88;6130344;23;20005;-66
2021/03/21 06:47:46;;;;;;;21.60;12.13;;;;;;;1.79;51.74;100730.47;6130454;23;20006;-66
2021/03/21 06:50:20;;;;;;;24.05;13.25;;;;;;;1.90;51.68;100728.94;6130481;23;20009;-65
2021/03/21 06:53:00;;;;;;;21.95;12.40;;;;;;;2.05;51.24;100727.53;6130305;23;20006;-63
2021/03/21 06:55:48;;;;;;;24.02;12.68;;;;;;;2.21;50.62;100730.53;6130584;23;20002;-64
2021/03/21 06:58:17;;;;;;;23.40;12.93;;;;;;;2.37;50.62;100714.88;6114056;23;20005;-66
2021/03/21 07:00:52;;;;;;;28.30;14.90;;;;;;;2.54;49.43;100711.16;6130474;23;20310;-66
2021/03/21 07:03:36;;;;;;;30.00;16.77;;;;;;;2.70;49.99;100707.38;6130196;23;20060;-65
2021/03/21 07:06:26;;;;;;;22.48;13.48;;;;;;;2.92;50.28;100702.59;6130455;23;20244;-66
2021/03/21 07:09:16;;;;;;;23.30;13.65;;;;;;;3.11;48.50;100708.41;6130066;23;19998;-66
2021/03/21 07:11:57;;;;;;;28.45;16.77;;;;;;;3.29;49.10;100701.50;6104087;23;20006;-57
2021/03/21 07:14:36;;;;;;;19.80;11.73;;;;;;;3.54;46.68;100695.94;6130384;23;20033;-55
2021/03/21 07:17:46;;;;;;;21.35;12.55;;;;;;;3.79;45.45;100694.75;6129984;23;20266;-55
2021/03/21 07:20:22;;;;;;;19.50;11.93;;;;;;;3.98;47.41;100694.16;6121781;23;20084;-56
2021/03/21 07:23:21;;;;;;;17.75;10.25;;;;;;;4.17;46.62;100702.69;6130276;23;20110;-57
2021/03/21 07:26:20;;;;;;;20.85;11.60;;;;;;;4.39;46.90;100697.75;6130155;23;20069;-58
2021/03/21 07:29:05;;;;;;;17.60;9.93;;;;;;;4.58;45.82;100695.91;6129821;23;20006;-55
2021/03/21 07:31:36;;;;;;;18.08;9.75;;;;;;;4.74;44.30;100697.94;6099753;23;20014;-56
2021/03/21 07:34:20;;;;;;;14.40;7.43;;;;;;;4.91;42.66;100680.88;6129946;23;20358;-52
2021/03/21 07:37:27;;;;;;;16.73;8.13;;;;;;;5.01;40.90;100682.34;6130195;23;20252;-59
2021/03/21 07:40:26;;;;;;;11.70;6.97;;;;;;;5.18;40.89;100680.00;6129923;23;20008;-59
2021/03/21 07:43:24;;;;;;;14.27;7.43;;;;;;;5.39;41.04;100676.16;6129087;23;20383;-59
2021/03/21 07:46:13;;;;;;;13.82;7.32;;;;;;;5.62;41.44;100677.13;6106771;23;20115;-59
2021/03/21 07:48:56;;;;;;;13.75;6.88;;;;;;;5.75;42.07;100664.69;6129541;23;20006;-59
2021/03/21 07:51:36;;;;;;;14.52;6.75;;;;;;;5.85;41.68;100677.25;6129793;23;20006;-66
2021/03/21 07:54:19;;;;;;;13.52;6.15;;;;;;;6.02;39.93;100667.66;6129453;23;20310;-66
2021/03/21 07:56:53;;;;;;;10.57;5.80;;;;;;;6.18;39.64;100671.22;6129838;23;20006;-67
2021/03/21 07:59:30;;;;;;;8.32;5.35;;;;;;;6.32;40.38;100667.94;6128106;23;20056;-66
2021/03/21 08:01:55;;;;;;;9.82;6.22;;;;;;;6.43;40.11;100672.56;6129849;23;20060;-66
2021/03/21 08:04:24;;;;;;;40.30;23.75;;;;;;;6.56;38.53;100669.59;6129608;23;20033;-64
2021/03/21 08:06:58;;;;;;;74.03;36.75;;;;;;;6.66;38.51;100666.22;6128956;23;20017;-67
2021/03/21 08:09:38;;;;;;;27.08;15.02;;;;;;;6.74;38.81;100673.56;6103431;23;20275;-67
2021/03/21 08:12:18;;;;;;;9.35;6.40;;;;;;;6.84;38.05;100664.56;6129276;23;20012;-62
2021/03/21 08:14:46;;;;;;;9.10;5.60;;;;;;;6.86;37.59;100665.03;6129380;23;20430;-60
2021/03/21 08:17:25;;;;;;;11.90;7.00;;;;;;;6.84;36.20;100664.56;6128906;23;20012;-66
2021/03/21 08:20:04;;;;;;;12.07;6.07;;;;;;;6.80;36.70;100663.69;6129277;23;20017;-64
2021/03/21 08:22:31;;;;;;;14.50;6.32;;;;;;;6.80;36.93;100653.31;6129799;23;20052;-55
2021/03/21 08:25:03;;;;;;;10.70;6.78;;;;;;;6.82;38.21;100647.34;6129328;23;20033;-65
2021/03/21 08:27:32;;;;;;;11.88;6.97;;;;;;;6.85;37.23;100643.84;6129539;23;20013;-66
2021/03/21 08:30:03;;;;;;;23.97;10.97;;;;;;;6.88;37.52;100645.91;6128930;23;20014;-64
2021/03/21 08:32:31;;;;;;;12.02;7.53;;;;;;;6.84;36.47;100642.22;6129063;23;20209;-63
2021/03/21 08:35:16;;;;;;;15.85;5.70;;;;;;;6.86;37.73;100639.88;6128916;23;20057;-64
2021/03/21 08:37:47;;;;;;;11.73;6.88;;;;;;;6.89;36.00;100639.13;6127794;23;20025;-67
2021/03/21 08:40:21;;;;;;;11.70;5.95;;;;;;;6.92;35.36;100627.22;6129165;23;20006;-66
2021/03/21 08:42:49;;;;;;;8.35;5.57;;;;;;;6.95;36.86;100634.03;6129314;23;20286;-67
2021/03/21 08:45:28;;;;;;;11.15;6.20;;;;;;;7.01;37.09;100632.53;6129501;23;20064;-67
2021/03/21 08:48:13;;;;;;;11.18;6.47;;;;;;;7.09;37.56;100621.09;6129242;23;20393;-67
2021/03/21 08:50:48;;;;;;;11.38;6.65;;;;;;;7.16;36.50;100623.22;6129034;23;20002;-68
2021/03/21 08:53:41;;;;;;;11.75;7.15;;;;;;;7.19;36.60;100619.69;6129263;23;20072;-66
2021/03/21 08:56:24;;;;;;;10.57;7.18;;;;;;;7.29;37.03;100623.81;6103732;23;20001;-67
2021/03/21 08:59:17;;;;;;;8.82;6.15;;;;;;;7.39;36.85;100617.56;6129341;23;20386;-67
2021/03/21 09:01:56;;;;;;;13.30;7.47;;;;;;;7.42;36.58;100606.47;6130526;23;20022;-67
2021/03/21 09:04:26;;;;;;;14.65;7.82;;;;;;;7.41;36.69;100610.44;6131199;23;20009;-65
2021/03/21 09:06:52;;;;;;;13.82;7.50;;;;;;;7.45;36.69;100599.31;6130479;23;20558;-67
2021/03/21 09:09:38;;;;;;;14.15;6.90;;;;;;;7.47;35.75;100596.94;6129461;23;20053;-63
2021/03/21 09:12:25;;;;;;;8.82;6.15;;;;;;;7.43;37.38;100584.91;6130182;23;20064;-64
2021/03/21 09:15:11;;;;;;;12.13;6.18;;;;;;;7.42;38.44;100581.31;6130825;23;20006;-63
2021/03/21 09:17:37;;;;;;;18.30;7.28;;;;;;;7.46;37.80;100575.75;6129482;23;20025;-64
2021/03/21 09:20:04;;;;;;;9.18;5.95;;;;;;;7.50;38.08;100575.81;6130252;23;20005;-62
2021/03/21 09:22:41;;;;;;;14.63;6.70;;;;;;;7.50;36.14;100575.81;6130255;23;20045;-64
2021/03/21 09:25:15;;;;;;;11.43;7.07;;;;;;;7.56;35.84;100563.91;6130286;23;20036;-66
2021/03/21 09:27:43;;;;;;;8.73;6.15;;;;;;;7.55;35.94;100559.50;6130101;23;20049;-65
2021/03/21 09:30:23;;;;;;;9.10;5.70;;;;;;;7.54;35.09;100555.09;6130348;23;20045;-65
2021/03/21 09:32:57;;;;;;;9.05;5.78;;;;;;;7.59;36.20;100554.75;6130481;23;20089;-60
2021/03/21 09:35:39;;;;;;;8.52;5.35;;;;;;;7.64;35.90;100548.81;6130407;23;20085;-66
2021/03/21 09:38:19;;;;;;;;;;;;;;;7.66;34.79;100546.44;6131042;23;20006;-65
2021/03/21 09:40:50;;;;;;;10.65;6.00;;;;;;;7.71;36.11;100553.72;6128379;23;19913;-57
2021/03/21 09:43:19;;;;;;;;;;;;;;;7.72;35.69;100541.34;6129345;23;20025;-55
2021/03/21 09:45:50;;;;;;;10.80;5.80;;;;;;;7.68;35.21;100534.91;6128959;23;19908;-55
2021/03/21 09:48:26;;;;;;;8.35;5.80;;;;;;;7.72;35.87;100538.56;6130513;23;20009;-58
2021/03/21 09:51:10;;;;;;;11.23;6.10;;;;;;;7.72;34.53;100525.38;6128398;23;20069;-58
2021/03/21 09:54:02;;;;;;;9.45;6.07;;;;;;;7.80;35.04;100520.66;6130254;23;20009;-68
2021/03/21 09:56:27;;;;;;;9.75;6.10;;;;;;;7.88;34.63;100515.94;6130427;23;20021;-66
2021/03/21 09:59:34;;;;;;;8.82;5.65;;;;;;;7.94;34.87;100514.41;6130593;23;20002;-65
2021/03/21 10:02:10;;;;;;;10.55;6.25;;;;;;;7.99;35.38;100519.69;6100811;23;20036;-58
2021/03/21 10:04:47;;;;;;;11.77;7.07;;;;;;;8.07;35.13;100513.00;6129622;23;20382;-68
2021/03/21 10:07:23;;;;;;;9.40;5.85;;;;;;;8.09;34.84;100502.22;6129711;23;20409;-57
2021/03/21 10:09:51;;;;;;;8.20;5.78;;;;;;;8.11;33.91;100510.22;6130299;23;20008;-58
2021/03/21 10:12:17;;;;;;;9.32;6.00;;;;;;;8.08;33.46;100500.59;6130267;23;20006;-49
2021/03/21 10:14:58;;;;;;;11.70;6.78;;;;;;;8.15;34.10;100499.88;6130411;23;19998;-58
2021/03/21 10:17:27;;;;;;;7.77;5.30;;;;;;;8.19;33.41;100493.09;6130570;23;20077;-58
2021/03/21 10:19:55;;;;;;;9.13;5.53;;;;;;;8.22;33.64;100486.75;6129867;23;20085;-59
2021/03/21 10:22:26;;;;;;;7.28;5.38;;;;;;;8.21;33.07;100484.31;6130237;23;20071;-60
2021/03/21 10:24:54;;;;;;;10.82;6.18;;;;;;;8.23;33.60;100477.19;6130139;23;20001;-60
2021/03/21 10:27:25;;;;;;;24.33;11.30;;;;;;;8.29;35.97;100483.22;6129886;23;20008;-58
2021/03/21 10:30:08;;;;;;;35.37;15.07;;;;;;;8.42;39.87;100478.97;6130066;23;20002;-72
2021/03/21 10:32:36;;;;;;;33.72;16.20;;;;;;;8.54;38.72;100470.28;6130053;23;20221;-64
2021/03/21 10:35:04;;;;;;;25.05;11.68;;;;;;;8.66;38.20;100466.38;6130010;23;20009;-60
2021/03/21 10:37:41;;;;;;;17.38;8.63;;;;;;;8.72;34.87;100472.41;6130067;23;20009;-66
2021/03/21 10:40:24;;;;;;;23.75;9.90;;;;;;;8.74;35.93;100462.44;6129871;23;20006;-64
2021/03/21 10:43:13;;;;;;;16.70;9.45;;;;;;;8.81;35.82;100464.50;6130179;23;20425;-66
2021/03/21 10:45:38;;;;;;;13.32;7.05;;;;;;;8.86;35.11;100459.34;6101781;23;20016;-65
2021/03/21 10:48:19;;;;;;;16.75;8.00;;;;;;;8.89;34.77;100455.75;6130210;23;20319;-64
2021/03/21 10:50:53;;;;;;;14.80;7.60;;;;;;;8.89;34.12;100447.34;6129506;23;20367;-65
2021/03/21 10:53:27;;;;;;;17.23;7.20;;;;;;;8.95;35.27;100442.97;6130220;23;20029;-65
2021/03/21 10:56:07;;;;;;;12.27;6.57;;;;;;;8.97;34.49;100443.38;6130076;23;20009;-63
2021/03/21 10:58:35;;;;;;;12.50;6.80;;;;;;;8.96;33.66;100429.75;6130125;23;20093;-65
2021/03/21 11:01:19;;;;;;;17.65;6.90;;;;;;;8.96;34.09;100424.94;6130186;23;20025;-63
2021/03/21 11:03:55;;;;;;;9.98;6.65;;;;;;;9.00;33.40;100427.78;6103799;23;20010;-66
2021/03/21 11:06:22;;;;;;;13.27;7.38;;;;;;;9.05;35.10;100423.81;6130046;23;20009;-64
2021/03/21 11:08:48;;;;;;;11.98;7.00;;;;;;;9.11;33.75;100430.66;6129091;23;20005;-64
2021/03/21 11:11:17;;;;;;;13.63;8.32;;;;;;;9.11;33.81;100413.84;6104089;23;20010;-66
2021/03/21 11:13:43;;;;;;;14.45;6.65;;;;;;;9.07;33.24;100407.41;6129658;23;20002;-63
2021/03/21 11:16:11;;;;;;;11.25;6.75;;;;;;;9.08;32.50;100409.81;6130124;23;20005;-66
2021/03/21 11:18:37;;;;;;;14.93;7.93;;;;;;;9.09;33.32;100402.22;6129742;23;20005;-69
2021/03/21 11:21:14;;;;;;;13.02;7.18;;;;;;;9.15;33.26;100400.63;6129812;23;19998;-68
2021/03/21 11:23:50;;;;;;;16.05;7.65;;;;;;;9.24;32.67;100395.44;6103805;23;20006;-68
2021/03/21 11:26:27;;;;;;;17.75;8.70;;;;;;;9.25;33.43;100386.66;6129502;23;20061;-64
2021/03/21 11:29:07;;;;;;;11.02;7.40;;;;;;;9.27;32.62;100384.25;6129517;23;20005;-63
2021/03/21 11:31:34;;;;;;;30.35;8.48;;;;;;;9.34;33.53;100385.50;6129400;23;20271;-67
2021/03/21 11:34:28;;;;;;;15.95;9.13;;;;;;;9.38;32.97;100378.69;6128486;23;20001;-66
2021/03/21 11:37:05;;;;;;;15.55;8.27;;;;;;;9.38;32.85;100367.47;6103759;23;20364;-67
2021/03/21 11:39:37;;;;;;;18.40;7.25;;;;;;;9.37;32.65;100360.25;6129642;23;20110;-56
2021/03/21 11:42:25;;;;;;;13.85;8.55;;;;;;;9.31;32.24;100353.41;6129451;23;20029;-61
2021/03/21 11:44:53;;;;;;;27.30;9.23;;;;;;;9.24;32.90;100356.19;6129490;23;20009;-56
2021/03/21 11:47:21;;;;;;;13.70;7.82;;;;;;;9.25;31.64;100353.00;6129287;23;20005;-53
2021/03/21 11:49:47;;;;;;;10.73;7.55;;;;;;;9.19;33.05;100345.34;6129669;23;20012;-52
2021/03/21 11:52:13;;;;;;;13.90;8.10;;;;;;;9.24;33.58;100339.38;6129821;23;19998;-57
2021/03/21 11:54:39;;;;;;;29.55;9.30;;;;;;;9.30;34.19;100332.97;6129070;23;20052;-56
2021/03/21 11:57:24;;;;;;;20.00;8.60;;;;;;;9.42;33.47;100331.03;6129779;23;20077;-51
2021/03/21 12:00:24;;;;;;;12.52;8.25;;;;;;;9.50;33.05;100318.59;6129558;23;20068;-59
2021/03/21 12:02:57;;;;;;;36.58;9.25;;;;;;;9.54;33.36;100314.59;6129181;23;20009;-62